Amherst, New York
Current Conditions -  °F | °C
As of 11:54 AM on Saturday 25 Oct 2014 (Local Time) from KBUF Reporting Station
Scattered Clouds Scattered Clouds  
Wind Chill: 61°   Ceiling: Unl
Heat Index: 61°   Visibility: 10mi
Dew Point: 50°   Wind: 26mph
Humidity: 67%   Direction: 230°SW
Pressure: 29.69"   Gusts: 35mph
Location:  43.0271°N, 78.7597°W
Report Text: KBUF 251554Z COR 23023G30KT 10SM SCT020 16/10 A2969 RMK AO2 PK WND 22030/1553 SLP055 T01610100
Loading
Personal Weather Stations






























Interactive Weather Map
Tropical Storm Tracking
New forecast layout! Learn more

10-Day Weather Forecast

Advertisements
Track Severe Weather on mobile